sensor_id;sensor_type;location;lat;lon;timestamp;temperature;humidity
6256;DHT22;3161;48.794;9.784;2023-02-03T00:00:22;5.70;99.90
6256;DHT22;3161;48.794;9.784;2023-02-03T00:02:50;5.70;99.90
6256;DHT22;3161;48.794;9.784;2023-02-03T00:05:18;5.80;99.90
6256;DHT22;3161;48.794;9.784;2023-02-03T00:07:45;5.80;99.90
6256;DHT22;3161;48.794;9.784;2023-02-03T00:10:13;5.80;99.90
6256;DHT22;3161;48.794;9.784;2023-02-03T00:12:41;5.80;99.90
6256;DHT22;3161;48.794;9.784;2023-02-03T00:15:09;5.80;99.90
6256;DHT22;3161;48.794;9.784;2023-02-03T00:17:37;5.80;99.90
6256;DHT22;3161;48.794;9.784;2023-02-03T00:20:05;5.80;99.90
6256;DHT22;3161;48.794;9.784;2023-02-03T00:22:32;5.80;99.90
6256;DHT22;3161;48.794;9.784;2023-02-03T00:25:00;5.80;99.90
6256;DHT22;3161;48.794;9.784;2023-02-03T00:27:27;5.80;99.90
6256;DHT22;3161;48.794;9.784;2023-02-03T00:29:55;5.80;99.90
6256;DHT22;3161;48.794;9.784;2023-02-03T00:32:22;5.80;99.90
6256;DHT22;3161;48.794;9.784;2023-02-03T00:34:50;5.80;99.90
6256;DHT22;3161;48.794;9.784;2023-02-03T00:37:18;5.80;99.90
6256;DHT22;3161;48.794;9.784;2023-02-03T00:39:45;5.80;99.90
6256;DHT22;3161;48.794;9.784;2023-02-03T00:42:13;5.90;99.90
6256;DHT22;3161;48.794;9.784;2023-02-03T00:44:41;5.90;99.90
6256;DHT22;3161;48.794;9.784;2023-02-03T00:47:08;5.90;99.90
6256;DHT22;3161;48.794;9.784;2023-02-03T00:49:36;5.90;99.90
6256;DHT22;3161;48.794;9.784;2023-02-03T00:52:04;5.90;99.90
6256;DHT22;3161;48.794;9.784;2023-02-03T00:54:31;5.90;99.90
6256;DHT22;3161;48.794;9.784;2023-02-03T00:56:59;5.90;99.90
6256;DHT22;3161;48.794;9.784;2023-02-03T00:59:26;5.90;99.90
6256;DHT22;3161;48.794;9.784;2023-02-03T01:01:54;5.90;99.90
6256;DHT22;3161;48.794;9.784;2023-02-03T01:04:21;5.90;99.90
6256;DHT22;3161;48.794;9.784;2023-02-03T01:06:49;5.90;99.90
6256;DHT22;3161;48.794;9.784;2023-02-03T01:09:16;5.90;99.90
6256;DHT22;3161;48.794;9.784;2023-02-03T01:11:44;5.90;99.90
6256;DHT22;3161;48.794;9.784;2023-02-03T01:14:12;5.90;99.90
6256;DHT22;3161;48.794;9.784;2023-02-03T01:16:39;5.90;99.90
6256;DHT22;3161;48.794;9.784;2023-02-03T01:19:07;5.90;99.90
6256;DHT22;3161;48.794;9.784;2023-02-03T01:21:34;5.90;99.90
6256;DHT22;3161;48.794;9.784;2023-02-03T01:24:02;5.90;99.90
6256;DHT22;3161;48.794;9.784;2023-02-03T01:26:30;5.90;99.90
6256;DHT22;3161;48.794;9.784;2023-02-03T01:28:58;5.80;99.90
6256;DHT22;3161;48.794;9.784;2023-02-03T01:31:33;5.80;99.90
6256;DHT22;3161;48.794;9.784;2023-02-03T01:33:57;5.80;99.90
6256;DHT22;3161;48.794;9.784;2023-02-03T01:36:27;5.80;99.90
6256;DHT22;3161;48.794;9.784;2023-02-03T01:38:55;5.80;99.90
6256;DHT22;3161;48.794;9.784;2023-02-03T01:41:25;5.80;99.90
6256;DHT22;3161;48.794;9.784;2023-02-03T01:43:54;5.80;99.90
6256;DHT22;3161;48.794;9.784;2023-02-03T01:46:25;5.80;99.90
6256;DHT22;3161;48.794;9.784;2023-02-03T01:48:59;5.80;99.90
6256;DHT22;3161;48.794;9.784;2023-02-03T01:51:23;5.90;99.90
6256;DHT22;3161;48.794;9.784;2023-02-03T01:53:52;5.90;99.90
6256;DHT22;3161;48.794;9.784;2023-02-03T01:56:21;5.90;99.90
6256;DHT22;3161;48.794;9.784;2023-02-03T01:58:49;5.90;99.90
6256;DHT22;3161;48.794;9.784;2023-02-03T02:01:17;5.90;99.90
6256;DHT22;3161;48.794;9.784;2023-02-03T02:03:50;5.90;99.90
6256;DHT22;3161;48.794;9.784;2023-02-03T02:06:19;5.90;99.90
6256;DHT22;3161;48.794;9.784;2023-02-03T02:08:49;5.90;99.90
6256;DHT22;3161;48.794;9.784;2023-02-03T02:11:18;5.90;99.90
6256;DHT22;3161;48.794;9.784;2023-02-03T02:13:51;5.90;99.90
6256;DHT22;3161;48.794;9.784;2023-02-03T02:19:55;5.80;99.90
6256;DHT22;3161;48.794;9.784;2023-02-03T02:24:57;5.90;99.90
6256;DHT22;3161;48.794;9.784;2023-02-03T02:27:41;5.90;99.90
6256;DHT22;3161;48.794;9.784;2023-02-03T02:38:24;5.70;99.90
6256;DHT22;3161;48.794;9.784;2023-02-03T02:41:01;5.80;99.90
6256;DHT22;3161;48.794;9.784;2023-02-03T02:43:39;5.80;99.90
6256;DHT22;3161;48.794;9.784;2023-02-03T02:46:13;5.80;99.90
6256;DHT22;3161;48.794;9.784;2023-02-03T02:51:15;5.80;99.90
6256;DHT22;3161;48.794;9.784;2023-02-03T02:53:46;5.80;99.90
6256;DHT22;3161;48.794;9.784;2023-02-03T02:56:15;5.70;99.90
6256;DHT22;3161;48.794;9.784;2023-02-03T02:58:45;5.70;99.90
6256;DHT22;3161;48.794;9.784;2023-02-03T03:01:15;5.80;99.90
6256;DHT22;3161;48.794;9.784;2023-02-03T03:03:43;5.80;99.90
6256;DHT22;3161;48.794;9.784;2023-02-03T03:06:20;5.80;99.90
6256;DHT22;3161;48.794;9.784;2023-02-03T03:08:53;5.80;99.90
6256;DHT22;3161;48.794;9.784;2023-02-03T03:11:29;5.80;99.90
6256;DHT22;3161;48.794;9.784;2023-02-03T03:13:53;5.80;99.90
6256;DHT22;3161;48.794;9.784;2023-02-03T03:16:26;5.90;99.90
6256;DHT22;3161;48.794;9.784;2023-02-03T03:18:58;5.90;99.90
6256;DHT22;3161;48.794;9.784;2023-02-03T03:21:29;5.90;99.90
6256;DHT22;3161;48.794;9.784;2023-02-03T03:23:58;5.90;99.90
6256;DHT22;3161;48.794;9.784;2023-02-03T03:26:33;5.90;99.90
6256;DHT22;3161;48.794;9.784;2023-02-03T03:29:13;5.90;99.90
6256;DHT22;3161;48.794;9.784;2023-02-03T03:31:40;5.90;99.90
6256;DHT22;3161;48.794;9.784;2023-02-03T03:34:09;5.90;99.90
6256;DHT22;3161;48.794;9.784;2023-02-03T03:36:49;5.90;99.90
6256;DHT22;3161;48.794;9.784;2023-02-03T03:39:26;5.90;99.90
6256;DHT22;3161;48.794;9.784;2023-02-03T03:41:59;5.90;99.90
6256;DHT22;3161;48.794;9.784;2023-02-03T03:44:32;6.00;99.90
6256;DHT22;3161;48.794;9.784;2023-02-03T03:47:03;5.90;99.90
6256;DHT22;3161;48.794;9.784;2023-02-03T03:49:30;5.90;99.90
6256;DHT22;3161;48.794;9.784;2023-02-03T03:52:02;5.90;99.90
6256;DHT22;3161;48.794;9.784;2023-02-03T03:54:30;5.90;99.90
6256;DHT22;3161;48.794;9.784;2023-02-03T03:57:22;5.90;99.90
6256;DHT22;3161;48.794;9.784;2023-02-03T03:59:31;6.00;99.90
6256;DHT22;3161;48.794;9.784;2023-02-03T04:02:00;5.90;99.90
6256;DHT22;3161;48.794;9.784;2023-02-03T04:04:32;6.00;99.90
6256;DHT22;3161;48.794;9.784;2023-02-03T04:07:00;6.00;99.90
6256;DHT22;3161;48.794;9.784;2023-02-03T04:09:27;6.00;99.90
6256;DHT22;3161;48.794;9.784;2023-02-03T04:11:55;6.00;99.90
6256;DHT22;3161;48.794;9.784;2023-02-03T04:14:30;6.10;99.90
6256;DHT22;3161;48.794;9.784;2023-02-03T04:16:58;6.10;99.90
6256;DHT22;3161;48.794;9.784;2023-02-03T04:19:26;6.00;99.90
6256;DHT22;3161;48.794;9.784;2023-02-03T04:21:54;6.10;99.90
6256;DHT22;3161;48.794;9.784;2023-02-03T04:24:22;6.10;99.90
6256;DHT22;3161;48.794;9.784;2023-02-03T04:26:49;6.10;99.90
6256;DHT22;3161;48.794;9.784;2023-02-03T04:29:17;6.00;99.90
6256;DHT22;3161;48.794;9.784;2023-02-03T04:31:44;6.00;99.90
6256;DHT22;3161;48.794;9.784;2023-02-03T04:34:12;6.10;99.90
6256;DHT22;3161;48.794;9.784;2023-02-03T04:36:39;6.10;99.90
6256;DHT22;3161;48.794;9.784;2023-02-03T04:39:07;6.10;99.90
6256;DHT22;3161;48.794;9.784;2023-02-03T04:41:34;6.00;99.90
6256;DHT22;3161;48.794;9.784;2023-02-03T04:44:02;6.10;99.90
6256;DHT22;3161;48.794;9.784;2023-02-03T04:46:29;6.10;99.90
6256;DHT22;3161;48.794;9.784;2023-02-03T04:48:57;6.10;99.90
6256;DHT22;3161;48.794;9.784;2023-02-03T04:51:24;6.10;99.90
6256;DHT22;3161;48.794;9.784;2023-02-03T04:53:52;6.10;99.90
6256;DHT22;3161;48.794;9.784;2023-02-03T04:56:19;6.10;99.90
6256;DHT22;3161;48.794;9.784;2023-02-03T04:58:47;6.10;99.90
6256;DHT22;3161;48.794;9.784;2023-02-03T05:01:14;6.10;99.90
6256;DHT22;3161;48.794;9.784;2023-02-03T05:03:42;6.00;99.90
6256;DHT22;3161;48.794;9.784;2023-02-03T05:06:09;6.00;99.90
6256;DHT22;3161;48.794;9.784;2023-02-03T05:08:37;6.00;99.90
6256;DHT22;3161;48.794;9.784;2023-02-03T05:11:04;5.90;99.90
6256;DHT22;3161;48.794;9.784;2023-02-03T05:13:32;6.00;99.90
6256;DHT22;3161;48.794;9.784;2023-02-03T05:15:59;6.00;99.90
6256;DHT22;3161;48.794;9.784;2023-02-03T05:18:27;6.00;99.90
6256;DHT22;3161;48.794;9.784;2023-02-03T05:20:54;5.90;99.90
6256;DHT22;3161;48.794;9.784;2023-02-03T05:23:22;5.90;99.90
6256;DHT22;3161;48.794;9.784;2023-02-03T05:25:49;5.90;99.90
6256;DHT22;3161;48.794;9.784;2023-02-03T05:28:17;5.90;99.90
6256;DHT22;3161;48.794;9.784;2023-02-03T05:30:45;5.80;99.90
6256;DHT22;3161;48.794;9.784;2023-02-03T05:33:12;5.80;99.90
6256;DHT22;3161;48.794;9.784;2023-02-03T05:35:40;5.80;99.90
6256;DHT22;3161;48.794;9.784;2023-02-03T05:38:07;5.80;99.90
6256;DHT22;3161;48.794;9.784;2023-02-03T05:40:35;5.80;99.90
6256;DHT22;3161;48.794;9.784;2023-02-03T05:43:20;5.80;99.90
6256;DHT22;3161;48.794;9.784;2023-02-03T05:45:48;5.80;99.90
6256;DHT22;3161;48.794;9.784;2023-02-03T05:48:15;5.70;99.90
6256;DHT22;3161;48.794;9.784;2023-02-03T05:50:43;5.70;99.90
6256;DHT22;3161;48.794;9.784;2023-02-03T05:53:11;5.70;99.90
6256;DHT22;3161;48.794;9.784;2023-02-03T05:55:38;5.80;99.90
6256;DHT22;3161;48.794;9.784;2023-02-03T05:58:06;5.80;99.90
6256;DHT22;3161;48.794;9.784;2023-02-03T06:00:34;5.80;99.90
6256;DHT22;3161;48.794;9.784;2023-02-03T06:03:02;5.70;99.90
6256;DHT22;3161;48.794;9.784;2023-02-03T06:05:31;5.70;99.90
6256;DHT22;3161;48.794;9.784;2023-02-03T06:08:00;5.70;99.90
6256;DHT22;3161;48.794;9.784;2023-02-03T06:10:27;5.70;99.90
6256;DHT22;3161;48.794;9.784;2023-02-03T06:12:55;5.70;99.90
6256;DHT22;3161;48.794;9.784;2023-02-03T06:15:22;5.70;99.90
6256;DHT22;3161;48.794;9.784;2023-02-03T06:17:50;5.60;99.90
6256;DHT22;3161;48.794;9.784;2023-02-03T06:20:20;5.60;99.90
6256;DHT22;3161;48.794;9.784;2023-02-03T06:22:47;5.60;99.90
6256;DHT22;3161;48.794;9.784;2023-02-03T06:25:15;5.60;99.90
6256;DHT22;3161;48.794;9.784;2023-02-03T06:27:43;5.60;99.90
6256;DHT22;3161;48.794;9.784;2023-02-03T06:30:12;5.50;99.90
6256;DHT22;3161;48.794;9.784;2023-02-03T06:32:39;5.50;99.90
6256;DHT22;3161;48.794;9.784;2023-02-03T06:35:07;5.60;99.90
6256;DHT22;3161;48.794;9.784;2023-02-03T06:37:35;5.50;99.90
6256;DHT22;3161;48.794;9.784;2023-02-03T06:40:03;5.50;99.90
6256;DHT22;3161;48.794;9.784;2023-02-03T06:42:31;5.50;99.90
6256;DHT22;3161;48.794;9.784;2023-02-03T06:44:58;5.50;99.90
6256;DHT22;3161;48.794;9.784;2023-02-03T06:47:26;5.50;99.90
6256;DHT22;3161;48.794;9.784;2023-02-03T06:49:53;5.50;99.90
6256;DHT22;3161;48.794;9.784;2023-02-03T06:52:21;5.50;99.90
6256;DHT22;3161;48.794;9.784;2023-02-03T06:54:48;5.50;99.90
6256;DHT22;3161;48.794;9.784;2023-02-03T06:57:16;5.50;99.90
6256;DHT22;3161;48.794;9.784;2023-02-03T06:59:43;5.50;99.90
6256;DHT22;3161;48.794;9.784;2023-02-03T07:02:11;5.50;99.90
6256;DHT22;3161;48.794;9.784;2023-02-03T07:04:38;5.50;99.90
6256;DHT22;3161;48.794;9.784;2023-02-03T07:07:06;5.50;99.90
6256;DHT22;3161;48.794;9.784;2023-02-03T07:09:33;5.50;99.90
6256;DHT22;3161;48.794;9.784;2023-02-03T07:12:01;5.50;99.90
6256;DHT22;3161;48.794;9.784;2023-02-03T07:14:28;5.60;99.90
6256;DHT22;3161;48.794;9.784;2023-02-03T07:16:56;5.60;99.90
6256;DHT22;3161;48.794;9.784;2023-02-03T07:19:24;5.60;99.90
6256;DHT22;3161;48.794;9.784;2023-02-03T07:21:51;5.60;99.90
6256;DHT22;3161;48.794;9.784;2023-02-03T07:24:19;5.60;99.90
6256;DHT22;3161;48.794;9.784;2023-02-03T07:26:46;5.50;99.90
6256;DHT22;3161;48.794;9.784;2023-02-03T07:29:14;5.60;99.90
6256;DHT22;3161;48.794;9.784;2023-02-03T07:31:41;5.50;99.90
6256;DHT22;3161;48.794;9.784;2023-02-03T07:34:09;5.50;99.90
6256;DHT22;3161;48.794;9.784;2023-02-03T07:36:36;5.60;99.90
6256;DHT22;3161;48.794;9.784;2023-02-03T07:39:04;5.50;99.90
6256;DHT22;3161;48.794;9.784;2023-02-03T07:41:32;5.50;99.90
6256;DHT22;3161;48.794;9.784;2023-02-03T07:43:59;5.60;99.90
6256;DHT22;3161;48.794;9.784;2023-02-03T07:46:27;5.60;99.90
6256;DHT22;3161;48.794;9.784;2023-02-03T07:48:54;5.60;99.90
6256;DHT22;3161;48.794;9.784;2023-02-03T07:51:22;5.70;99.90
6256;DHT22;3161;48.794;9.784;2023-02-03T07:53:50;5.70;99.90
6256;DHT22;3161;48.794;9.784;2023-02-03T07:56:17;5.70;99.90
6256;DHT22;3161;48.794;9.784;2023-02-03T07:58:45;5.70;99.90
6256;DHT22;3161;48.794;9.784;2023-02-03T08:01:14;5.70;99.90
6256;DHT22;3161;48.794;9.784;2023-02-03T08:03:42;5.60;99.90
6256;DHT22;3161;48.794;9.784;2023-02-03T08:06:10;5.60;99.90
6256;DHT22;3161;48.794;9.784;2023-02-03T08:08:38;5.60;99.90
6256;DHT22;3161;48.794;9.784;2023-02-03T08:11:06;5.60;99.90
6256;DHT22;3161;48.794;9.784;2023-02-03T08:13:34;5.60;99.90
6256;DHT22;3161;48.794;9.784;2023-02-03T08:16:01;5.60;99.90
6256;DHT22;3161;48.794;9.784;2023-02-03T08:18:29;5.60;99.90
6256;DHT22;3161;48.794;9.784;2023-02-03T08:20:56;5.60;99.90
6256;DHT22;3161;48.794;9.784;2023-02-03T08:23:24;5.70;99.90
6256;DHT22;3161;48.794;9.784;2023-02-03T08:25:52;5.70;99.90
6256;DHT22;3161;48.794;9.784;2023-02-03T08:28:20;5.70;99.90
6256;DHT22;3161;48.794;9.784;2023-02-03T08:30:47;5.80;99.90
6256;DHT22;3161;48.794;9.784;2023-02-03T08:33:15;5.80;99.90
6256;DHT22;3161;48.794;9.784;2023-02-03T08:35:45;5.80;99.90
6256;DHT22;3161;48.794;9.784;2023-02-03T08:38:13;5.80;99.90
6256;DHT22;3161;48.794;9.784;2023-02-03T08:40:41;5.80;99.90
6256;DHT22;3161;48.794;9.784;2023-02-03T08:43:08;5.80;99.90
6256;DHT22;3161;48.794;9.784;2023-02-03T08:45:38;5.80;99.90
6256;DHT22;3161;48.794;9.784;2023-02-03T08:48:06;5.80;99.90
6256;DHT22;3161;48.794;9.784;2023-02-03T08:50:33;5.80;99.90
6256;DHT22;3161;48.794;9.784;2023-02-03T08:53:01;5.80;99.90
6256;DHT22;3161;48.794;9.784;2023-02-03T08:55:29;5.80;99.90
6256;DHT22;3161;48.794;9.784;2023-02-03T08:57:56;5.90;99.90
6256;DHT22;3161;48.794;9.784;2023-02-03T09:00:24;5.90;99.90
6256;DHT22;3161;48.794;9.784;2023-02-03T09:02:52;5.80;99.90
6256;DHT22;3161;48.794;9.784;2023-02-03T09:05:20;5.80;99.90
6256;DHT22;3161;48.794;9.784;2023-02-03T09:07:47;5.80;99.90
6256;DHT22;3161;48.794;9.784;2023-02-03T09:10:15;5.90;99.90
6256;DHT22;3161;48.794;9.784;2023-02-03T09:12:42;5.90;99.90
6256;DHT22;3161;48.794;9.784;2023-02-03T09:15:10;5.90;99.90
6256;DHT22;3161;48.794;9.784;2023-02-03T09:17:37;5.90;99.90
6256;DHT22;3161;48.794;9.784;2023-02-03T09:20:06;5.90;99.90
6256;DHT22;3161;48.794;9.784;2023-02-03T09:22:34;5.90;99.90
6256;DHT22;3161;48.794;9.784;2023-02-03T09:25:01;6.00;99.90
6256;DHT22;3161;48.794;9.784;2023-02-03T09:27:29;6.00;99.90
6256;DHT22;3161;48.794;9.784;2023-02-03T09:29:56;6.00;99.90
6256;DHT22;3161;48.794;9.784;2023-02-03T09:32:24;6.00;99.90
6256;DHT22;3161;48.794;9.784;2023-02-03T09:34:52;6.00;99.90
6256;DHT22;3161;48.794;9.784;2023-02-03T09:37:19;6.00;99.90
6256;DHT22;3161;48.794;9.784;2023-02-03T09:39:46;6.00;99.90
6256;DHT22;3161;48.794;9.784;2023-02-03T09:45:21;6.10;99.90
6256;DHT22;3161;48.794;9.784;2023-02-03T09:47:48;6.10;99.90
6256;DHT22;3161;48.794;9.784;2023-02-03T09:50:25;6.10;99.90
6256;DHT22;3161;48.794;9.784;2023-02-03T09:52:54;6.10;99.90
6256;DHT22;3161;48.794;9.784;2023-02-03T09:55:41;6.10;99.90
6256;DHT22;3161;48.794;9.784;2023-02-03T09:58:16;6.10;99.90
6256;DHT22;3161;48.794;9.784;2023-02-03T10:01:07;6.10;99.90
6256;DHT22;3161;48.794;9.784;2023-02-03T10:06:38;6.00;99.90
6256;DHT22;3161;48.794;9.784;2023-02-03T10:17:32;6.30;99.90
6256;DHT22;3161;48.794;9.784;2023-02-03T10:20:20;6.30;99.90
6256;DHT22;3161;48.794;9.784;2023-02-03T10:22:47;6.30;99.90
6256;DHT22;3161;48.794;9.784;2023-02-03T10:25:16;6.40;99.90
6256;DHT22;3161;48.794;9.784;2023-02-03T10:27:47;6.40;99.90
6256;DHT22;3161;48.794;9.784;2023-02-03T10:30:26;6.50;99.90
6256;DHT22;3161;48.794;9.784;2023-02-03T10:32:59;6.50;99.90
6256;DHT22;3161;48.794;9.784;2023-02-03T10:35:27;6.50;99.90
6256;DHT22;3161;48.794;9.784;2023-02-03T10:37:56;7.00;99.90
6256;DHT22;3161;48.794;9.784;2023-02-03T10:40:26;6.60;99.90
6256;DHT22;3161;48.794;9.784;2023-02-03T10:42:54;6.60;99.90
6256;DHT22;3161;48.794;9.784;2023-02-03T10:45:40;6.60;99.90
6256;DHT22;3161;48.794;9.784;2023-02-03T10:48:12;6.60;99.90
6256;DHT22;3161;48.794;9.784;2023-02-03T10:50:43;6.60;99.90
6256;DHT22;3161;48.794;9.784;2023-02-03T10:56:15;6.60;99.90
6256;DHT22;3161;48.794;9.784;2023-02-03T10:59:02;6.60;99.90
6256;DHT22;3161;48.794;9.784;2023-02-03T11:01:12;6.60;99.90
6256;DHT22;3161;48.794;9.784;2023-02-03T11:03:55;6.70;99.90
6256;DHT22;3161;48.794;9.784;2023-02-03T11:06:23;6.70;99.90
6256;DHT22;3161;48.794;9.784;2023-02-03T11:08:52;6.80;99.90
6256;DHT22;3161;48.794;9.784;2023-02-03T11:11:23;6.80;99.90
6256;DHT22;3161;48.794;9.784;2023-02-03T11:16:32;6.90;99.90
6256;DHT22;3161;48.794;9.784;2023-02-03T11:19:06;6.90;99.90
6256;DHT22;3161;48.794;9.784;2023-02-03T11:24:25;7.00;99.90
6256;DHT22;3161;48.794;9.784;2023-02-03T11:29:39;7.00;99.90
6256;DHT22;3161;48.794;9.784;2023-02-03T11:34:55;7.00;99.90
6256;DHT22;3161;48.794;9.784;2023-02-03T11:37:33;7.00;99.90
6256;DHT22;3161;48.794;9.784;2023-02-03T11:42:40;7.10;99.90
6256;DHT22;3161;48.794;9.784;2023-02-03T11:45:35;7.10;99.90
6256;DHT22;3161;48.794;9.784;2023-02-03T11:48:01;7.10;99.90
6256;DHT22;3161;48.794;9.784;2023-02-03T11:50:55;7.20;99.90
6256;DHT22;3161;48.794;9.784;2023-02-03T11:53:38;7.20;99.90
6256;DHT22;3161;48.794;9.784;2023-02-03T12:07:31;7.00;99.90
6256;DHT22;3161;48.794;9.784;2023-02-03T12:10:15;7.00;99.90
6256;DHT22;3161;48.794;9.784;2023-02-03T12:13:02;7.00;99.90
6256;DHT22;3161;48.794;9.784;2023-02-03T12:15:45;6.90;99.90
6256;DHT22;3161;48.794;9.784;2023-02-03T12:18:27;6.90;99.90
6256;DHT22;3161;48.794;9.784;2023-02-03T12:21:02;6.90;99.90
6256;DHT22;3161;48.794;9.784;2023-02-03T12:23:54;6.90;99.90
6256;DHT22;3161;48.794;9.784;2023-02-03T12:26:25;6.90;99.90
6256;DHT22;3161;48.794;9.784;2023-02-03T12:29:11;6.90;99.90
6256;DHT22;3161;48.794;9.784;2023-02-03T12:31:49;6.90;99.90
6256;DHT22;3161;48.794;9.784;2023-02-03T12:34:34;6.90;99.90
6256;DHT22;3161;48.794;9.784;2023-02-03T12:37:11;6.90;99.90
6256;DHT22;3161;48.794;9.784;2023-02-03T12:39:44;6.80;99.90
6256;DHT22;3161;48.794;9.784;2023-02-03T12:44:46;6.80;99.90
6256;DHT22;3161;48.794;9.784;2023-02-03T12:47:30;6.90;99.90
6256;DHT22;3161;48.794;9.784;2023-02-03T12:50:03;6.90;99.90
6256;DHT22;3161;48.794;9.784;2023-02-03T12:52:39;6.90;99.90
6256;DHT22;3161;48.794;9.784;2023-02-03T12:55:14;6.90;99.90
6256;DHT22;3161;48.794;9.784;2023-02-03T12:57:59;6.80;99.90
6256;DHT22;3161;48.794;9.784;2023-02-03T13:00:29;6.80;99.90
6256;DHT22;3161;48.794;9.784;2023-02-03T13:03:18;6.90;99.90
6256;DHT22;3161;48.794;9.784;2023-02-03T13:05:57;6.90;99.90
6256;DHT22;3161;48.794;9.784;2023-02-03T13:11:17;6.90;99.90
6256;DHT22;3161;48.794;9.784;2023-02-03T13:13:49;7.00;99.90
6256;DHT22;3161;48.794;9.784;2023-02-03T13:16:13;7.00;99.90
6256;DHT22;3161;48.794;9.784;2023-02-03T13:18:45;7.00;99.90
6256;DHT22;3161;48.794;9.784;2023-02-03T13:21:12;7.10;99.90
6256;DHT22;3161;48.794;9.784;2023-02-03T13:23:41;7.00;99.90
6256;DHT22;3161;48.794;9.784;2023-02-03T13:26:31;7.00;99.90
6256;DHT22;3161;48.794;9.784;2023-02-03T13:37:41;6.90;99.90
6256;DHT22;3161;48.794;9.784;2023-02-03T13:43:05;6.90;99.90
6256;DHT22;3161;48.794;9.784;2023-02-03T13:45:44;6.80;99.90
6256;DHT22;3161;48.794;9.784;2023-02-03T13:48:20;6.80;99.90
6256;DHT22;3161;48.794;9.784;2023-02-03T13:50:50;6.70;99.90
6256;DHT22;3161;48.794;9.784;2023-02-03T13:53:24;6.70;99.90
6256;DHT22;3161;48.794;9.784;2023-02-03T13:55:58;6.70;99.90
6256;DHT22;3161;48.794;9.784;2023-02-03T13:58:29;6.80;99.90
6256;DHT22;3161;48.794;9.784;2023-02-03T14:01:03;6.70;99.90
6256;DHT22;3161;48.794;9.784;2023-02-03T14:05:58;6.80;99.90
6256;DHT22;3161;48.794;9.784;2023-02-03T14:16:38;6.80;99.90
6256;DHT22;3161;48.794;9.784;2023-02-03T14:19:11;6.80;99.90
6256;DHT22;3161;48.794;9.784;2023-02-03T14:24:15;6.80;99.90
6256;DHT22;3161;48.794;9.784;2023-02-03T14:26:53;6.80;99.90
6256;DHT22;3161;48.794;9.784;2023-02-03T14:29:34;6.80;99.90
6256;DHT22;3161;48.794;9.784;2023-02-03T14:32:10;6.80;99.90
6256;DHT22;3161;48.794;9.784;2023-02-03T14:34:48;6.80;99.90
6256;DHT22;3161;48.794;9.784;2023-02-03T14:37:15;6.80;99.90
6256;DHT22;3161;48.794;9.784;2023-02-03T14:39:48;6.90;99.90
6256;DHT22;3161;48.794;9.784;2023-02-03T14:48:11;6.90;99.90
6256;DHT22;3161;48.794;9.784;2023-02-03T14:51:03;6.90;99.90
6256;DHT22;3161;48.794;9.784;2023-02-03T14:53:55;6.80;99.90
6256;DHT22;3161;48.794;9.784;2023-02-03T14:56:37;6.80;99.90
6256;DHT22;3161;48.794;9.784;2023-02-03T14:59:02;6.80;99.90
6256;DHT22;3161;48.794;9.784;2023-02-03T15:06:46;6.90;99.90
6256;DHT22;3161;48.794;9.784;2023-02-03T15:09:44;6.90;99.90
6256;DHT22;3161;48.794;9.784;2023-02-03T15:12:23;7.00;99.90
6256;DHT22;3161;48.794;9.784;2023-02-03T15:14:49;7.00;99.90
6256;DHT22;3161;48.794;9.784;2023-02-03T15:17:26;7.00;99.90
6256;DHT22;3161;48.794;9.784;2023-02-03T15:19:53;7.00;99.90
6256;DHT22;3161;48.794;9.784;2023-02-03T15:22:26;7.10;99.90
6256;DHT22;3161;48.794;9.784;2023-02-03T15:24:59;7.10;99.90
6256;DHT22;3161;48.794;9.784;2023-02-03T15:27:30;7.10;99.90
6256;DHT22;3161;48.794;9.784;2023-02-03T15:30:09;7.10;99.90
6256;DHT22;3161;48.794;9.784;2023-02-03T15:32:37;7.20;99.90
6256;DHT22;3161;48.794;9.784;2023-02-03T15:35:03;7.20;99.90
6256;DHT22;3161;48.794;9.784;2023-02-03T15:37:47;7.20;99.90
6256;DHT22;3161;48.794;9.784;2023-02-03T15:40:25;7.20;99.90
6256;DHT22;3161;48.794;9.784;2023-02-03T15:45:31;7.30;99.90
6256;DHT22;3161;48.794;9.784;2023-02-03T15:48:05;7.30;99.90
6256;DHT22;3161;48.794;9.784;2023-02-03T15:50:48;7.30;99.90
6256;DHT22;3161;48.794;9.784;2023-02-03T15:53:22;7.30;99.90
6256;DHT22;3161;48.794;9.784;2023-02-03T15:55:52;7.30;99.90
6256;DHT22;3161;48.794;9.784;2023-02-03T15:58:25;7.20;99.90
6256;DHT22;3161;48.794;9.784;2023-02-03T16:00:59;7.20;99.90
6256;DHT22;3161;48.794;9.784;2023-02-03T16:03:32;7.10;99.90
6256;DHT22;3161;48.794;9.784;2023-02-03T16:06:26;7.00;99.90
6256;DHT22;3161;48.794;9.784;2023-02-03T16:08:54;7.00;99.90
6256;DHT22;3161;48.794;9.784;2023-02-03T16:14:01;7.00;99.90
6256;DHT22;3161;48.794;9.784;2023-02-03T16:16:41;6.90;99.90
6256;DHT22;3161;48.794;9.784;2023-02-03T16:19:14;6.80;99.90
6256;DHT22;3161;48.794;9.784;2023-02-03T16:33:12;6.80;99.90
6256;DHT22;3161;48.794;9.784;2023-02-03T16:36:01;6.80;99.90
6256;DHT22;3161;48.794;9.784;2023-02-03T16:38:49;6.70;99.90
6256;DHT22;3161;48.794;9.784;2023-02-03T16:41:36;6.70;99.90
6256;DHT22;3161;48.794;9.784;2023-02-03T16:44:21;6.70;99.90
6256;DHT22;3161;48.794;9.784;2023-02-03T16:47:20;6.70;99.90
6256;DHT22;3161;48.794;9.784;2023-02-03T16:50:02;6.70;99.90
6256;DHT22;3161;48.794;9.784;2023-02-03T16:52:47;6.70;99.90
6256;DHT22;3161;48.794;9.784;2023-02-03T16:55:15;6.70;99.90
6256;DHT22;3161;48.794;9.784;2023-02-03T16:57:42;6.70;99.90
6256;DHT22;3161;48.794;9.784;2023-02-03T17:00:11;6.70;99.90
6256;DHT22;3161;48.794;9.784;2023-02-03T17:02:39;6.70;99.90
6256;DHT22;3161;48.794;9.784;2023-02-03T17:05:07;6.70;99.90
6256;DHT22;3161;48.794;9.784;2023-02-03T17:07:34;6.70;99.90
6256;DHT22;3161;48.794;9.784;2023-02-03T17:10:02;6.70;99.90
6256;DHT22;3161;48.794;9.784;2023-02-03T17:12:29;6.70;99.90
6256;DHT22;3161;48.794;9.784;2023-02-03T17:14:59;6.70;99.90
6256;DHT22;3161;48.794;9.784;2023-02-03T17:17:26;6.70;99.90
6256;DHT22;3161;48.794;9.784;2023-02-03T17:19:54;6.70;99.90
6256;DHT22;3161;48.794;9.784;2023-02-03T17:22:22;6.60;99.90
6256;DHT22;3161;48.794;9.784;2023-02-03T17:24:50;6.60;99.90
6256;DHT22;3161;48.794;9.784;2023-02-03T17:27:17;6.60;99.90
6256;DHT22;3161;48.794;9.784;2023-02-03T17:29:45;6.60;99.90
6256;DHT22;3161;48.794;9.784;2023-02-03T17:32:13;6.60;99.90
6256;DHT22;3161;48.794;9.784;2023-02-03T17:34:41;6.70;99.90
6256;DHT22;3161;48.794;9.784;2023-02-03T17:37:08;6.60;99.90
6256;DHT22;3161;48.794;9.784;2023-02-03T17:39:36;6.60;99.90
6256;DHT22;3161;48.794;9.784;2023-02-03T17:42:03;6.60;99.90
6256;DHT22;3161;48.794;9.784;2023-02-03T17:44:33;6.60;99.90
6256;DHT22;3161;48.794;9.784;2023-02-03T17:47:02;6.60;99.90
6256;DHT22;3161;48.794;9.784;2023-02-03T17:49:29;6.60;99.90
6256;DHT22;3161;48.794;9.784;2023-02-03T17:51:57;6.70;99.90
6256;DHT22;3161;48.794;9.784;2023-02-03T17:54:24;6.60;99.90
6256;DHT22;3161;48.794;9.784;2023-02-03T17:56:52;6.70;99.90
6256;DHT22;3161;48.794;9.784;2023-02-03T17:59:19;6.70;99.90
6256;DHT22;3161;48.794;9.784;2023-02-03T18:01:47;6.70;99.90
6256;DHT22;3161;48.794;9.784;2023-02-03T18:04:14;6.70;99.90
6256;DHT22;3161;48.794;9.784;2023-02-03T18:06:42;6.70;99.90
6256;DHT22;3161;48.794;9.784;2023-02-03T18:09:10;6.80;99.90
6256;DHT22;3161;48.794;9.784;2023-02-03T18:11:39;6.70;99.90
6256;DHT22;3161;48.794;9.784;2023-02-03T18:14:07;6.70;99.90
6256;DHT22;3161;48.794;9.784;2023-02-03T18:16:36;6.70;99.90
6256;DHT22;3161;48.794;9.784;2023-02-03T18:19:06;6.70;99.90
6256;DHT22;3161;48.794;9.784;2023-02-03T18:21:38;6.80;99.90
6256;DHT22;3161;48.794;9.784;2023-02-03T18:24:06;6.80;99.90
6256;DHT22;3161;48.794;9.784;2023-02-03T18:26:35;6.80;99.90
6256;DHT22;3161;48.794;9.784;2023-02-03T18:29:04;6.80;99.90
6256;DHT22;3161;48.794;9.784;2023-02-03T18:31:32;6.80;99.90
6256;DHT22;3161;48.794;9.784;2023-02-03T18:34:03;6.80;99.90
6256;DHT22;3161;48.794;9.784;2023-02-03T18:36:31;6.80;99.90